sensor_id;sensor_type;location;lat;lon;timestamp;pressure;altitude;pressure_sealevel;temperature;humidity
72336;BME280;65062;48.446;8.834;2023-05-07T00:02:21;97405.47;;;11.09;91.46
72336;BME280;65062;48.446;8.834;2023-05-07T00:05:21;97410.66;;;11.02;90.37
72336;BME280;65062;48.446;8.834;2023-05-07T00:08:22;97409.03;;;11.01;90.48
72336;BME280;65062;48.446;8.834;2023-05-07T00:11:22;97405.16;;;10.97;90.98
72336;BME280;65062;48.446;8.834;2023-05-07T00:14:22;97398.88;;;10.92;90.38
72336;BME280;65062;48.446;8.834;2023-05-07T00:17:23;97399.81;;;10.84;91.34
72336;BME280;65062;48.446;8.834;2023-05-07T00:20:23;97409.69;;;10.82;90.79
72336;BME280;65062;48.446;8.834;2023-05-07T00:23:23;97409.75;;;10.89;92.21
72336;BME280;65062;48.446;8.834;2023-05-07T00:26:24;97413.09;;;11.04;90.25
72336;BME280;65062;48.446;8.834;2023-05-07T00:29:24;97413.47;;;11.01;91.13
72336;BME280;65062;48.446;8.834;2023-05-07T00:32:25;97404.75;;;10.94;90.18
72336;BME280;65062;48.446;8.834;2023-05-07T00:35:25;97401.50;;;10.92;89.99
72336;BME280;65062;48.446;8.834;2023-05-07T00:38:25;97402.50;;;10.91;90.33
72336;BME280;65062;48.446;8.834;2023-05-07T00:41:26;97393.16;;;10.82;90.03
72336;BME280;65062;48.446;8.834;2023-05-07T00:44:26;97396.22;;;10.85;89.85
72336;BME280;65062;48.446;8.834;2023-05-07T00:47:27;97398.72;;;10.72;91.27
72336;BME280;65062;48.446;8.834;2023-05-07T00:50:27;97394.56;;;10.78;91.80
72336;BME280;65062;48.446;8.834;2023-05-07T00:53:28;97404.53;;;10.68;91.75
72336;BME280;65062;48.446;8.834;2023-05-07T00:56:29;97390.81;;;10.66;91.67
72336;BME280;65062;48.446;8.834;2023-05-07T00:59:31;97396.06;;;10.66;92.12
72336;BME280;65062;48.446;8.834;2023-05-07T01:02:32;97394.25;;;10.66;91.23
72336;BME280;65062;48.446;8.834;2023-05-07T01:05:32;97391.47;;;10.68;91.66
72336;BME280;65062;48.446;8.834;2023-05-07T01:08:33;97379.50;;;10.58;90.97
72336;BME280;65062;48.446;8.834;2023-05-07T01:11:35;97386.03;;;10.48;92.23
72336;BME280;65062;48.446;8.834;2023-05-07T01:14:35;97383.59;;;10.46;91.43
72336;BME280;65062;48.446;8.834;2023-05-07T01:17:37;97387.47;;;10.50;91.55
72336;BME280;65062;48.446;8.834;2023-05-07T01:20:38;97396.13;;;10.51;91.64
72336;BME280;65062;48.446;8.834;2023-05-07T01:23:38;97394.25;;;10.45;91.82
72336;BME280;65062;48.446;8.834;2023-05-07T01:26:39;97396.38;;;10.35;92.40
72336;BME280;65062;48.446;8.834;2023-05-07T01:29:40;97394.56;;;10.35;91.67
72336;BME280;65062;48.446;8.834;2023-05-07T01:32:48;97401.25;;;10.38;92.53
72336;BME280;65062;48.446;8.834;2023-05-07T01:35:53;97389.09;;;10.30;91.74
72336;BME280;65062;48.446;8.834;2023-05-07T01:38:53;97393.50;;;10.30;92.42
72336;BME280;65062;48.446;8.834;2023-05-07T01:41:55;97392.66;;;10.29;92.20
72336;BME280;65062;48.446;8.834;2023-05-07T01:44:56;97382.91;;;10.17;92.38
72336;BME280;65062;48.446;8.834;2023-05-07T01:47:58;97380.66;;;10.14;92.38
72336;BME280;65062;48.446;8.834;2023-05-07T01:50:59;97379.22;;;10.11;92.77
72336;BME280;65062;48.446;8.834;2023-05-07T01:54:00;97372.88;;;10.20;92.31
72336;BME280;65062;48.446;8.834;2023-05-07T01:57:01;97373.38;;;10.09;92.59
72336;BME280;65062;48.446;8.834;2023-05-07T02:00:03;97371.75;;;10.08;92.69
72336;BME280;65062;48.446;8.834;2023-05-07T02:03:06;97378.69;;;10.01;93.21
72336;BME280;65062;48.446;8.834;2023-05-07T02:06:06;97383.81;;;10.09;92.61
72336;BME280;65062;48.446;8.834;2023-05-07T02:09:07;97384.47;;;10.11;92.57
72336;BME280;65062;48.446;8.834;2023-05-07T02:12:09;97388.41;;;10.07;92.88
72336;BME280;65062;48.446;8.834;2023-05-07T02:15:09;97397.00;;;10.01;92.51
72336;BME280;65062;48.446;8.834;2023-05-07T02:18:10;97395.91;;;9.96;92.69
72336;BME280;65062;48.446;8.834;2023-05-07T02:21:10;97395.72;;;9.97;92.95
72336;BME280;65062;48.446;8.834;2023-05-07T02:24:11;97392.31;;;9.82;93.12
72336;BME280;65062;48.446;8.834;2023-05-07T02:27:11;97397.66;;;9.74;92.74
72336;BME280;65062;48.446;8.834;2023-05-07T02:30:12;97398.91;;;9.78;93.16
72336;BME280;65062;48.446;8.834;2023-05-07T02:33:12;97399.44;;;9.74;93.41
72336;BME280;65062;48.446;8.834;2023-05-07T02:36:13;97393.63;;;9.72;93.45
72336;BME280;65062;48.446;8.834;2023-05-07T02:39:14;97386.31;;;9.67;93.17
72336;BME280;65062;48.446;8.834;2023-05-07T02:42:15;97390.28;;;9.78;93.15
72336;BME280;65062;48.446;8.834;2023-05-07T02:45:15;97393.34;;;9.52;92.83
72336;BME280;65062;48.446;8.834;2023-05-07T02:48:16;97398.22;;;9.55;93.21
72336;BME280;65062;48.446;8.834;2023-05-07T02:51:20;97400.28;;;9.45;93.68
72336;BME280;65062;48.446;8.834;2023-05-07T02:54:21;97401.72;;;9.48;93.60
72336;BME280;65062;48.446;8.834;2023-05-07T02:57:21;97401.91;;;9.46;93.82
72336;BME280;65062;48.446;8.834;2023-05-07T03:00:22;97404.59;;;9.38;93.50
72336;BME280;65062;48.446;8.834;2023-05-07T03:03:22;97395.31;;;9.36;93.95
72336;BME280;65062;48.446;8.834;2023-05-07T03:06:23;97394.91;;;9.32;93.69
72336;BME280;65062;48.446;8.834;2023-05-07T03:09:23;97397.88;;;9.29;94.23
72336;BME280;65062;48.446;8.834;2023-05-07T03:12:24;97395.63;;;9.41;93.64
72336;BME280;65062;48.446;8.834;2023-05-07T03:15:24;97388.56;;;9.27;93.92
72336;BME280;65062;48.446;8.834;2023-05-07T03:18:24;97382.56;;;9.26;93.92
72336;BME280;65062;48.446;8.834;2023-05-07T03:21:25;97383.69;;;9.24;93.63
72336;BME280;65062;48.446;8.834;2023-05-07T03:24:26;97380.56;;;9.28;93.53
72336;BME280;65062;48.446;8.834;2023-05-07T03:27:26;97382.72;;;9.10;94.22
72336;BME280;65062;48.446;8.834;2023-05-07T03:30:27;97386.66;;;9.06;94.49
72336;BME280;65062;48.446;8.834;2023-05-07T03:33:27;97385.16;;;9.12;94.47
72336;BME280;65062;48.446;8.834;2023-05-07T03:36:28;97380.66;;;9.06;94.23
72336;BME280;65062;48.446;8.834;2023-05-07T03:39:28;97380.72;;;9.12;94.34
72336;BME280;65062;48.446;8.834;2023-05-07T03:42:28;97375.78;;;9.03;94.68
72336;BME280;65062;48.446;8.834;2023-05-07T03:45:29;97373.44;;;9.08;93.11
72336;BME280;65062;48.446;8.834;2023-05-07T03:48:29;97373.97;;;9.03;93.94
72336;BME280;65062;48.446;8.834;2023-05-07T03:51:30;97382.94;;;8.86;93.90
72336;BME280;65062;48.446;8.834;2023-05-07T03:54:31;97380.13;;;8.73;93.76
72336;BME280;65062;48.446;8.834;2023-05-07T03:57:31;97390.56;;;8.73;94.80
72336;BME280;65062;48.446;8.834;2023-05-07T04:00:31;97385.00;;;8.76;95.21
72336;BME280;65062;48.446;8.834;2023-05-07T04:03:37;97394.75;;;8.82;94.58
72336;BME280;65062;48.446;8.834;2023-05-07T04:06:37;97399.00;;;8.75;94.90
72336;BME280;65062;48.446;8.834;2023-05-07T04:09:37;97399.47;;;8.79;95.01
72336;BME280;65062;48.446;8.834;2023-05-07T04:12:38;97395.44;;;8.76;94.96
72336;BME280;65062;48.446;8.834;2023-05-07T04:15:38;97397.69;;;8.79;95.03
72336;BME280;65062;48.446;8.834;2023-05-07T04:18:38;97393.38;;;8.86;95.00
72336;BME280;65062;48.446;8.834;2023-05-07T04:21:39;97401.13;;;8.94;94.29
72336;BME280;65062;48.446;8.834;2023-05-07T04:24:40;97399.78;;;8.84;93.16
72336;BME280;65062;48.446;8.834;2023-05-07T04:27:40;97401.78;;;8.74;93.17
72336;BME280;65062;48.446;8.834;2023-05-07T04:30:40;97401.09;;;8.80;93.88
72336;BME280;65062;48.446;8.834;2023-05-07T04:33:41;97403.91;;;8.93;94.21
72336;BME280;65062;48.446;8.834;2023-05-07T04:36:42;97405.72;;;8.92;93.88
72336;BME280;65062;48.446;8.834;2023-05-07T04:39:42;97411.31;;;8.89;93.33
72336;BME280;65062;48.446;8.834;2023-05-07T04:42:43;97409.06;;;9.01;93.66
72336;BME280;65062;48.446;8.834;2023-05-07T04:45:43;97405.41;;;9.10;93.86
72336;BME280;65062;48.446;8.834;2023-05-07T04:48:43;97408.84;;;9.10;94.24
72336;BME280;65062;48.446;8.834;2023-05-07T04:51:44;97408.00;;;9.10;93.79
72336;BME280;65062;48.446;8.834;2023-05-07T04:54:44;97408.56;;;9.20;93.59
72336;BME280;65062;48.446;8.834;2023-05-07T04:57:45;97404.16;;;9.20;93.12
72336;BME280;65062;48.446;8.834;2023-05-07T05:00:45;97425.94;;;9.27;93.23
72336;BME280;65062;48.446;8.834;2023-05-07T05:03:46;97426.50;;;9.37;92.39
72336;BME280;65062;48.446;8.834;2023-05-07T05:06:47;97431.09;;;9.50;92.11
72336;BME280;65062;48.446;8.834;2023-05-07T05:09:48;97431.09;;;9.50;91.68
72336;BME280;65062;48.446;8.834;2023-05-07T05:12:48;97434.63;;;9.57;91.13
72336;BME280;65062;48.446;8.834;2023-05-07T05:15:49;97428.13;;;9.67;91.17
72336;BME280;65062;48.446;8.834;2023-05-07T05:18:49;97433.97;;;9.69;90.91
72336;BME280;65062;48.446;8.834;2023-05-07T05:21:52;97446.59;;;9.80;90.87
72336;BME280;65062;48.446;8.834;2023-05-07T05:24:52;97431.88;;;9.94;90.80
72336;BME280;65062;48.446;8.834;2023-05-07T05:27:53;97438.63;;;10.03;90.13
72336;BME280;65062;48.446;8.834;2023-05-07T05:30:53;97432.94;;;10.14;90.15
72336;BME280;65062;48.446;8.834;2023-05-07T05:33:53;97444.00;;;10.30;90.02
72336;BME280;65062;48.446;8.834;2023-05-07T05:36:54;97445.38;;;10.47;89.53
72336;BME280;65062;48.446;8.834;2023-05-07T05:39:54;97451.47;;;10.69;88.41
72336;BME280;65062;48.446;8.834;2023-05-07T05:42:54;97453.09;;;10.91;88.85
72336;BME280;65062;48.446;8.834;2023-05-07T05:45:56;97444.75;;;11.09;87.52
72336;BME280;65062;48.446;8.834;2023-05-07T05:48:56;97442.38;;;11.14;86.60
72336;BME280;65062;48.446;8.834;2023-05-07T05:51:57;97453.81;;;11.34;85.35
72336;BME280;65062;48.446;8.834;2023-05-07T05:54:57;97448.13;;;11.58;84.10
72336;BME280;65062;48.446;8.834;2023-05-07T05:57:59;97453.84;;;11.68;84.89
72336;BME280;65062;48.446;8.834;2023-05-07T06:00:59;97455.06;;;12.06;83.25
72336;BME280;65062;48.446;8.834;2023-05-07T06:04:00;97444.06;;;12.23;83.04
72336;BME280;65062;48.446;8.834;2023-05-07T06:07:00;97453.59;;;12.44;82.20
72336;BME280;65062;48.446;8.834;2023-05-07T06:10:01;97448.19;;;12.65;81.59
72336;BME280;65062;48.446;8.834;2023-05-07T06:13:02;97453.06;;;12.81;80.09
72336;BME280;65062;48.446;8.834;2023-05-07T06:16:02;97451.66;;;12.85;79.81
72336;BME280;65062;48.446;8.834;2023-05-07T06:19:03;97456.50;;;12.95;79.68
72336;BME280;65062;48.446;8.834;2023-05-07T06:22:03;97447.88;;;13.01;78.96
72336;BME280;65062;48.446;8.834;2023-05-07T06:25:04;97450.50;;;13.07;78.83
72336;BME280;65062;48.446;8.834;2023-05-07T06:28:04;97457.78;;;13.05;80.20
72336;BME280;65062;48.446;8.834;2023-05-07T06:31:15;97455.75;;;13.20;79.17
72336;BME280;65062;48.446;8.834;2023-05-07T06:34:15;97458.19;;;13.22;79.61
72336;BME280;65062;48.446;8.834;2023-05-07T06:37:16;97459.81;;;13.29;78.97
72336;BME280;65062;48.446;8.834;2023-05-07T06:40:16;97454.94;;;13.20;78.39
72336;BME280;65062;48.446;8.834;2023-05-07T06:43:17;97462.63;;;13.28;78.71
72336;BME280;65062;48.446;8.834;2023-05-07T06:46:17;97457.19;;;13.29;79.20
72336;BME280;65062;48.446;8.834;2023-05-07T06:49:17;97454.91;;;13.52;78.71
72336;BME280;65062;48.446;8.834;2023-05-07T06:52:18;97465.41;;;13.65;78.90
72336;BME280;65062;48.446;8.834;2023-05-07T06:55:18;97458.06;;;13.93;77.86
72336;BME280;65062;48.446;8.834;2023-05-07T06:58:19;97461.03;;;14.23;76.63
72336;BME280;65062;48.446;8.834;2023-05-07T07:01:19;97455.44;;;14.50;75.80
72336;BME280;65062;48.446;8.834;2023-05-07T07:04:20;97450.94;;;14.57;75.13
72336;BME280;65062;48.446;8.834;2023-05-07T07:07:22;97450.38;;;14.87;74.74
72336;BME280;65062;48.446;8.834;2023-05-07T07:10:22;97459.09;;;15.12;74.10
72336;BME280;65062;48.446;8.834;2023-05-07T07:13:23;97445.88;;;15.43;72.25
72336;BME280;65062;48.446;8.834;2023-05-07T07:16:23;97442.41;;;15.67;73.84
72336;BME280;65062;48.446;8.834;2023-05-07T07:19:24;97441.47;;;15.79;72.14
72336;BME280;65062;48.446;8.834;2023-05-07T07:22:24;97437.88;;;15.92;71.61
72336;BME280;65062;48.446;8.834;2023-05-07T07:25:25;97442.72;;;16.13;71.80
72336;BME280;65062;48.446;8.834;2023-05-07T07:28:25;97449.00;;;16.30;69.34
72336;BME280;65062;48.446;8.834;2023-05-07T07:31:26;97461.44;;;16.59;69.55
72336;BME280;65062;48.446;8.834;2023-05-07T07:34:26;97450.88;;;16.89;69.16
72336;BME280;65062;48.446;8.834;2023-05-07T07:37:26;97445.50;;;17.07;68.57
72336;BME280;65062;48.446;8.834;2023-05-07T07:40:27;97444.97;;;17.16;68.80
72336;BME280;65062;48.446;8.834;2023-05-07T07:43:27;97441.66;;;17.32;68.06
72336;BME280;65062;48.446;8.834;2023-05-07T07:46:28;97443.94;;;17.40;66.61
72336;BME280;65062;48.446;8.834;2023-05-07T07:49:28;97454.19;;;17.37;67.31
72336;BME280;65062;48.446;8.834;2023-05-07T07:52:28;97449.59;;;17.32;66.35
72336;BME280;65062;48.446;8.834;2023-05-07T07:55:29;97457.25;;;17.11;67.14
72336;BME280;65062;48.446;8.834;2023-05-07T07:58:31;97455.78;;;17.15;65.63
72336;BME280;65062;48.446;8.834;2023-05-07T08:01:31;97452.28;;;17.03;66.25
72336;BME280;65062;48.446;8.834;2023-05-07T08:04:32;97459.47;;;16.84;67.13
72336;BME280;65062;48.446;8.834;2023-05-07T08:07:33;97455.41;;;16.70;69.04
72336;BME280;65062;48.446;8.834;2023-05-07T08:10:33;97461.59;;;16.64;70.33
72336;BME280;65062;48.446;8.834;2023-05-07T08:13:34;97458.59;;;16.60;70.80
72336;BME280;65062;48.446;8.834;2023-05-07T08:16:35;97468.53;;;16.47;71.08
72336;BME280;65062;48.446;8.834;2023-05-07T08:19:35;97453.84;;;16.51;71.38
72336;BME280;65062;48.446;8.834;2023-05-07T08:22:36;97459.84;;;16.58;70.25
72336;BME280;65062;48.446;8.834;2023-05-07T08:25:36;97453.59;;;16.71;69.85
72336;BME280;65062;48.446;8.834;2023-05-07T08:28:37;97456.03;;;16.84;66.77
72336;BME280;65062;48.446;8.834;2023-05-07T08:31:38;97449.06;;;17.01;67.95
72336;BME280;65062;48.446;8.834;2023-05-07T08:34:41;97443.69;;;17.19;66.84
72336;BME280;65062;48.446;8.834;2023-05-07T08:37:41;97445.69;;;17.69;67.32
72336;BME280;65062;48.446;8.834;2023-05-07T08:40:41;97448.22;;;17.87;63.97
72336;BME280;65062;48.446;8.834;2023-05-07T08:43:47;97442.22;;;17.92;65.54
72336;BME280;65062;48.446;8.834;2023-05-07T08:46:48;97445.28;;;18.12;63.72
72336;BME280;65062;48.446;8.834;2023-05-07T08:49:52;97449.19;;;18.21;65.27
72336;BME280;65062;48.446;8.834;2023-05-07T08:52:54;97440.00;;;18.23;63.39
72336;BME280;65062;48.446;8.834;2023-05-07T08:55:54;97436.16;;;18.42;65.75
72336;BME280;65062;48.446;8.834;2023-05-07T08:58:55;97440.56;;;18.65;63.66
72336;BME280;65062;48.446;8.834;2023-05-07T09:01:58;97440.53;;;18.93;63.03
72336;BME280;65062;48.446;8.834;2023-05-07T09:04:59;97435.88;;;19.17;65.51
72336;BME280;65062;48.446;8.834;2023-05-07T09:08:00;97434.81;;;19.29;61.36
72336;BME280;65062;48.446;8.834;2023-05-07T09:11:02;97432.31;;;19.56;61.38
72336;BME280;65062;48.446;8.834;2023-05-07T09:14:02;97428.81;;;19.72;60.28
72336;BME280;65062;48.446;8.834;2023-05-07T09:17:04;97424.38;;;19.77;58.89
72336;BME280;65062;48.446;8.834;2023-05-07T09:20:07;97414.63;;;19.83;59.94
72336;BME280;65062;48.446;8.834;2023-05-07T09:23:08;97418.38;;;19.87;58.16
72336;BME280;65062;48.446;8.834;2023-05-07T09:26:08;97414.00;;;19.97;56.78
72336;BME280;65062;48.446;8.834;2023-05-07T09:29:11;97410.94;;;20.27;56.24
72336;BME280;65062;48.446;8.834;2023-05-07T09:32:12;97402.47;;;20.51;56.34
72336;BME280;65062;48.446;8.834;2023-05-07T09:35:17;97410.00;;;20.86;55.03
72336;BME280;65062;48.446;8.834;2023-05-07T09:38:18;97404.16;;;21.16;53.71
72336;BME280;65062;48.446;8.834;2023-05-07T09:41:20;97399.97;;;21.25;53.32
72336;BME280;65062;48.446;8.834;2023-05-07T09:44:21;97412.09;;;21.47;51.95
72336;BME280;65062;48.446;8.834;2023-05-07T09:47:24;97407.84;;;21.83;53.68
72336;BME280;65062;48.446;8.834;2023-05-07T09:50:27;97406.09;;;22.13;50.71
72336;BME280;65062;48.446;8.834;2023-05-07T09:53:29;97405.94;;;22.40;51.22
72336;BME280;65062;48.446;8.834;2023-05-07T09:56:31;97401.38;;;22.25;51.59
72336;BME280;65062;48.446;8.834;2023-05-07T09:59:32;97393.88;;;22.17;51.11
72336;BME280;65062;48.446;8.834;2023-05-07T10:02:35;97388.56;;;22.17;50.46
72336;BME280;65062;48.446;8.834;2023-05-07T10:05:37;97380.03;;;22.25;49.74
72336;BME280;65062;48.446;8.834;2023-05-07T10:08:37;97381.25;;;22.65;49.15
72336;BME280;65062;48.446;8.834;2023-05-07T10:11:38;97372.19;;;23.11;49.20
72336;BME280;65062;48.446;8.834;2023-05-07T10:14:40;97364.97;;;23.61;49.49
72336;BME280;65062;48.446;8.834;2023-05-07T10:17:41;97352.91;;;23.64;46.83
72336;BME280;65062;48.446;8.834;2023-05-07T10:20:42;97356.38;;;23.79;45.92
72336;BME280;65062;48.446;8.834;2023-05-07T10:23:53;97353.25;;;23.42;45.81
72336;BME280;65062;48.446;8.834;2023-05-07T10:26:57;97352.66;;;23.70;48.03
72336;BME280;65062;48.446;8.834;2023-05-07T10:30:29;97352.47;;;24.20;48.15
72336;BME280;65062;48.446;8.834;2023-05-07T10:33:32;97347.28;;;24.44;45.00
72336;BME280;65062;48.446;8.834;2023-05-07T10:36:33;97354.16;;;24.55;44.65
72336;BME280;65062;48.446;8.834;2023-05-07T10:39:34;97355.84;;;24.41;45.33
72336;BME280;65062;48.446;8.834;2023-05-07T10:42:35;97350.28;;;24.27;44.27
72336;BME280;65062;48.446;8.834;2023-05-07T10:45:35;97358.56;;;24.80;44.60
72336;BME280;65062;48.446;8.834;2023-05-07T10:52:20;97351.66;;;25.41;41.10
72336;BME280;65062;48.446;8.834;2023-05-07T10:55:21;97352.94;;;25.95;40.61
72336;BME280;65062;48.446;8.834;2023-05-07T11:01:50;97353.94;;;26.84;40.03
72336;BME280;65062;48.446;8.834;2023-05-07T11:05:24;97351.03;;;27.12;38.88
72336;BME280;65062;48.446;8.834;2023-05-07T11:08:24;97342.16;;;27.30;37.78
72336;BME280;65062;48.446;8.834;2023-05-07T11:15:04;97360.09;;;27.35;39.12
72336;BME280;65062;48.446;8.834;2023-05-07T11:18:05;97354.34;;;27.23;38.30
72336;BME280;65062;48.446;8.834;2023-05-07T11:21:05;97352.91;;;26.42;39.60
72336;BME280;65062;48.446;8.834;2023-05-07T11:24:07;97351.41;;;26.31;38.35
72336;BME280;65062;48.446;8.834;2023-05-07T11:27:08;97354.09;;;25.37;40.40
72336;BME280;65062;48.446;8.834;2023-05-07T11:30:08;97341.91;;;24.44;43.69
72336;BME280;65062;48.446;8.834;2023-05-07T11:33:09;97347.84;;;24.36;44.20
72336;BME280;65062;48.446;8.834;2023-05-07T11:36:10;97341.31;;;24.03;44.34
72336;BME280;65062;48.446;8.834;2023-05-07T11:39:27;97344.91;;;23.69;46.05
72336;BME280;65062;48.446;8.834;2023-05-07T11:42:29;97350.28;;;23.39;46.01
72336;BME280;65062;48.446;8.834;2023-05-07T11:45:30;97342.84;;;23.01;46.59
72336;BME280;65062;48.446;8.834;2023-05-07T11:48:31;97351.91;;;22.65;48.21
72336;BME280;65062;48.446;8.834;2023-05-07T11:51:32;97348.06;;;22.30;50.00
72336;BME280;65062;48.446;8.834;2023-05-07T11:54:36;97351.22;;;22.17;49.74
72336;BME280;65062;48.446;8.834;2023-05-07T11:57:37;97353.50;;;21.84;51.55
72336;BME280;65062;48.446;8.834;2023-05-07T12:00:37;97355.16;;;21.53;51.81
72336;BME280;65062;48.446;8.834;2023-05-07T12:03:40;97367.53;;;21.33;53.85
72336;BME280;65062;48.446;8.834;2023-05-07T12:06:45;97385.53;;;21.16;50.96
72336;BME280;65062;48.446;8.834;2023-05-07T12:09:46;97408.66;;;20.89;51.59
72336;BME280;65062;48.446;8.834;2023-05-07T12:12:47;97426.84;;;20.43;55.25
72336;BME280;65062;48.446;8.834;2023-05-07T12:15:55;97453.44;;;19.67;57.05
72336;BME280;65062;48.446;8.834;2023-05-07T12:18:56;97473.97;;;18.26;66.74
72336;BME280;65062;48.446;8.834;2023-05-07T12:21:59;97480.72;;;17.07;74.67
72336;BME280;65062;48.446;8.834;2023-05-07T12:25:00;97484.56;;;16.63;80.37
72336;BME280;65062;48.446;8.834;2023-05-07T12:28:01;97484.59;;;16.09;83.03
72336;BME280;65062;48.446;8.834;2023-05-07T12:31:02;97488.91;;;15.86;85.58
72336;BME280;65062;48.446;8.834;2023-05-07T12:34:02;97498.34;;;15.75;87.09
72336;BME280;65062;48.446;8.834;2023-05-07T12:37:03;97512.03;;;15.41;87.02
72336;BME280;65062;48.446;8.834;2023-05-07T12:40:08;97526.50;;;15.32;89.19
72336;BME280;65062;48.446;8.834;2023-05-07T12:43:26;97532.03;;;15.18;89.51
72336;BME280;65062;48.446;8.834;2023-05-07T12:46:27;97556.75;;;15.23;91.43
72336;BME280;65062;48.446;8.834;2023-05-07T12:49:27;97565.00;;;15.02;87.31
72336;BME280;65062;48.446;8.834;2023-05-07T12:52:28;97567.31;;;14.86;90.02
72336;BME280;65062;48.446;8.834;2023-05-07T12:55:29;97570.63;;;14.68;91.64
72336;BME280;65062;48.446;8.834;2023-05-07T12:58:33;97572.44;;;14.74;91.03
72336;BME280;65062;48.446;8.834;2023-05-07T13:01:34;97570.25;;;14.64;91.33
72336;BME280;65062;48.446;8.834;2023-05-07T13:04:34;97570.06;;;14.59;93.38
72336;BME280;65062;48.446;8.834;2023-05-07T13:07:35;97570.63;;;14.68;92.87
72336;BME280;65062;48.446;8.834;2023-05-07T13:10:36;97576.09;;;14.66;92.32
72336;BME280;65062;48.446;8.834;2023-05-07T13:13:38;97575.06;;;14.81;92.97
72336;BME280;65062;48.446;8.834;2023-05-07T13:16:39;97580.75;;;14.71;93.12
72336;BME280;65062;48.446;8.834;2023-05-07T13:19:40;97581.41;;;14.53;92.45
72336;BME280;65062;48.446;8.834;2023-05-07T13:22:40;97581.22;;;14.55;92.31
72336;BME280;65062;48.446;8.834;2023-05-07T13:25:41;97579.97;;;14.57;92.70
72336;BME280;65062;48.446;8.834;2023-05-07T13:28:41;97576.34;;;14.58;94.25
72336;BME280;65062;48.446;8.834;2023-05-07T13:31:42;97565.63;;;14.60;93.69
72336;BME280;65062;48.446;8.834;2023-05-07T13:34:44;97571.50;;;14.55;93.48
72336;BME280;65062;48.446;8.834;2023-05-07T13:37:44;97558.69;;;14.65;93.89
72336;BME280;65062;48.446;8.834;2023-05-07T13:40:44;97551.59;;;14.66;93.69
72336;BME280;65062;48.446;8.834;2023-05-07T13:43:45;97543.03;;;14.77;95.41
72336;BME280;65062;48.446;8.834;2023-05-07T13:46:45;97546.00;;;14.94;91.06
72336;BME280;65062;48.446;8.834;2023-05-07T13:49:46;97542.59;;;14.80;89.20
72336;BME280;65062;48.446;8.834;2023-05-07T13:52:49;97538.66;;;14.64;89.93
72336;BME280;65062;48.446;8.834;2023-05-07T13:55:52;97530.13;;;14.62;90.76
72336;BME280;65062;48.446;8.834;2023-05-07T13:58:53;97512.88;;;14.73;91.88
72336;BME280;65062;48.446;8.834;2023-05-07T14:01:53;97508.34;;;14.87;92.48
72336;BME280;65062;48.446;8.834;2023-05-07T14:04:54;97499.09;;;15.02;92.24
72336;BME280;65062;48.446;8.834;2023-05-07T14:07:56;97494.13;;;15.19;92.59
72336;BME280;65062;48.446;8.834;2023-05-07T14:10:57;97497.47;;;15.32;90.85
72336;BME280;65062;48.446;8.834;2023-05-07T14:13:57;97481.94;;;15.49;88.62
72336;BME280;65062;48.446;8.834;2023-05-07T14:16:58;97479.41;;;15.60;89.08
72336;BME280;65062;48.446;8.834;2023-05-07T14:19:58;97477.91;;;15.89;89.31
72336;BME280;65062;48.446;8.834;2023-05-07T14:22:59;97481.94;;;15.91;86.04
72336;BME280;65062;48.446;8.834;2023-05-07T14:25:59;97489.94;;;15.85;87.37
72336;BME280;65062;48.446;8.834;2023-05-07T14:29:00;97483.03;;;16.02;88.96
72336;BME280;65062;48.446;8.834;2023-05-07T14:32:01;97481.72;;;16.29;86.57
72336;BME280;65062;48.446;8.834;2023-05-07T14:35:01;97482.13;;;16.62;84.26
72336;BME280;65062;48.446;8.834;2023-05-07T14:38:02;97493.59;;;17.27;81.24
72336;BME280;65062;48.446;8.834;2023-05-07T14:41:02;97482.38;;;18.12;78.17
72336;BME280;65062;48.446;8.834;2023-05-07T14:44:03;97501.00;;;19.08;68.97
72336;BME280;65062;48.446;8.834;2023-05-07T14:47:04;97488.41;;;19.97;68.23
72336;BME280;65062;48.446;8.834;2023-05-07T14:50:04;97482.91;;;21.12;62.70
72336;BME280;65062;48.446;8.834;2023-05-07T14:53:05;97474.94;;;22.21;62.69
72336;BME280;65062;48.446;8.834;2023-05-07T14:56:05;97484.59;;;23.09;60.68
72336;BME280;65062;48.446;8.834;2023-05-07T14:59:07;97477.91;;;24.22;55.88
72336;BME280;65062;48.446;8.834;2023-05-07T15:02:08;97477.81;;;25.44;52.84
72336;BME280;65062;48.446;8.834;2023-05-07T15:05:09;97478.47;;;25.93;46.74
72336;BME280;65062;48.446;8.834;2023-05-07T15:08:09;97492.88;;;24.97;47.34
72336;BME280;65062;48.446;8.834;2023-05-07T15:11:10;97497.59;;;24.66;48.78
72336;BME280;65062;48.446;8.834;2023-05-07T15:14:10;97507.06;;;23.88;50.14
72336;BME280;65062;48.446;8.834;2023-05-07T15:17:10;97506.31;;;23.98;52.90
72336;BME280;65062;48.446;8.834;2023-05-07T15:20:11;97513.78;;;23.61;53.90
72336;BME280;65062;48.446;8.834;2023-05-07T15:23:12;97516.13;;;23.17;53.07
72336;BME280;65062;48.446;8.834;2023-05-07T15:26:14;97521.38;;;22.30;57.06
72336;BME280;65062;48.446;8.834;2023-05-07T15:29:14;97514.59;;;22.08;58.45
72336;BME280;65062;48.446;8.834;2023-05-07T15:32:15;97529.66;;;21.29;60.19
72336;BME280;65062;48.446;8.834;2023-05-07T15:35:15;97527.09;;;21.13;61.97
72336;BME280;65062;48.446;8.834;2023-05-07T15:38:15;97525.91;;;20.55;64.18
72336;BME280;65062;48.446;8.834;2023-05-07T15:41:16;97515.63;;;20.42;62.16
72336;BME280;65062;48.446;8.834;2023-05-07T15:44:16;97507.09;;;20.19;66.02
72336;BME280;65062;48.446;8.834;2023-05-07T15:47:16;97508.78;;;19.92;67.99
72336;BME280;65062;48.446;8.834;2023-05-07T15:50:17;97512.34;;;19.64;67.73
72336;BME280;65062;48.446;8.834;2023-05-07T15:53:17;97513.41;;;19.47;68.85
72336;BME280;65062;48.446;8.834;2023-05-07T15:56:18;97509.06;;;19.13;72.79
72336;BME280;65062;48.446;8.834;2023-05-07T15:59:18;97514.50;;;19.06;73.01
72336;BME280;65062;48.446;8.834;2023-05-07T16:02:18;97516.66;;;18.93;74.17
72336;BME280;65062;48.446;8.834;2023-05-07T16:05:19;97523.75;;;19.04;75.65
72336;BME280;65062;48.446;8.834;2023-05-07T16:08:19;97522.63;;;19.00;74.46
72336;BME280;65062;48.446;8.834;2023-05-07T16:11:20;97519.19;;;18.88;76.42
72336;BME280;65062;48.446;8.834;2023-05-07T16:14:21;97517.66;;;18.63;76.12